Time;durP1;ratioP1;P1;durP2;ratioP2;P2;SDS_P1;SDS_P2;PMS_P1;PMS_P2;Temp;Humidity;BMP_temperature;BMP_pressure;BME280_temperature;BME280_humidity;BME280_pressure;Samples;Min_cycle;Max_cycle;Signal;HPM_P1;HPM_P2
2022/09/21 00:00:25;;;;;;;1.88;0.70;;;7.30;99.90;;;;;;5075748;28;20048;-74
2022/09/21 00:02:55;;;;;;;2.38;0.90;;;7.40;99.90;;;;;;5076238;28;20378;-74
2022/09/21 00:05:21;;;;;;;1.52;0.80;;;7.40;99.90;;;;;;5075354;28;20123;-74
2022/09/21 00:07:47;;;;;;;2.83;1.08;;;7.50;99.90;;;;;;5076384;28;20067;-74
2022/09/21 00:10:13;;;;;;;2.70;1.20;;;7.50;99.90;;;;;;5077051;28;20045;-74
2022/09/21 00:12:39;;;;;;;3.47;1.10;;;7.50;99.90;;;;;;5076669;28;20036;-74
2022/09/21 00:15:07;;;;;;;1.77;0.98;;;7.50;99.90;;;;;;5076502;28;20114;-74
2022/09/21 00:17:33;;;;;;;1.70;0.85;;;7.50;99.90;;;;;;5076583;28;20048;-74
2022/09/21 00:20:01;;;;;;;1.70;1.00;;;7.40;99.90;;;;;;5076407;28;20055;-74
2022/09/21 00:22:27;;;;;;;1.50;0.90;;;7.40;99.90;;;;;;5075376;28;20091;-74
2022/09/21 00:24:54;;;;;;;3.28;1.10;;;7.30;99.90;;;;;;5076026;28;20041;-74
2022/09/21 00:27:21;;;;;;;1.85;1.10;;;7.40;99.90;;;;;;5076054;28;20040;-74
2022/09/21 00:29:47;;;;;;;1.90;1.10;;;7.40;99.90;;;;;;5076192;28;20052;-74
2022/09/21 00:32:14;;;;;;;1.23;0.60;;;7.40;99.90;;;;;;5074874;28;20059;-75
2022/09/21 00:34:40;;;;;;;1.85;0.60;;;7.40;99.90;;;;;;5058295;28;20500;-74
2022/09/21 00:37:08;;;;;;;5.78;1.05;;;7.40;99.90;;;;;;5074791;28;20132;-74
2022/09/21 00:39:34;;;;;;;1.80;0.77;;;7.40;99.90;;;;;;5075241;28;20095;-74
2022/09/21 00:42:00;;;;;;;1.95;0.70;;;7.40;99.90;;;;;;5075563;28;20119;-74
2022/09/21 00:44:32;;;;;;;1.83;0.60;;;7.30;99.90;;;;;;5075902;28;20126;-74
2022/09/21 00:47:07;;;;;;;1.50;0.70;;;7.30;99.90;;;;;;5075576;28;20046;-74
2022/09/21 00:49:35;;;;;;;3.00;0.70;;;7.30;99.90;;;;;;5075903;28;20055;-74
2022/09/21 00:52:04;;;;;;;1.98;0.77;;;7.30;99.90;;;;;;5075744;28;20049;-74
2022/09/21 00:54:38;;;;;;;1.63;0.80;;;7.20;99.90;;;;;;5075590;28;20409;-74
2022/09/21 00:57:04;;;;;;;1.48;0.77;;;7.20;99.90;;;;;;5075776;28;20056;-74
2022/09/21 00:59:32;;;;;;;1.08;0.55;;;7.20;99.90;;;;;;5075602;28;20090;-74
2022/09/21 01:01:59;;;;;;;2.40;0.98;;;7.20;99.90;;;;;;5075624;28;20053;-74
2022/09/21 01:04:27;;;;;;;2.78;0.93;;;7.20;99.90;;;;;;5073599;28;20048;-74
2022/09/21 01:06:55;;;;;;;2.67;0.90;;;7.20;99.90;;;;;;5075245;28;20063;-75
2022/09/21 01:09:21;;;;;;;1.45;0.88;;;7.20;99.90;;;;;;5076260;28;20091;-74
2022/09/21 01:12:25;;;;;;;6.95;1.08;;;7.10;99.90;;;;;;5073856;28;20051;-74
2022/09/21 01:15:00;;;;;;;2.30;0.80;;;7.10;99.90;;;;;;5058549;28;20099;-74
2022/09/21 01:17:34;;;;;;;2.55;1.00;;;7.10;99.90;;;;;;5075101;28;20056;-74
2022/09/21 01:20:17;;;;;;;1.67;0.80;;;7.00;99.90;;;;;;5074207;28;20045;-74
2022/09/21 01:23:07;;;;;;;1.00;0.60;;;6.90;99.90;;;;;;5075273;28;20102;-74
2022/09/21 01:26:00;;;;;;;2.30;0.90;;;6.80;99.90;;;;;;5075054;28;20131;-74
2022/09/21 01:28:29;;;;;;;5.95;1.20;;;6.70;99.90;;;;;;5074465;28;20207;-75
2022/09/21 01:31:04;;;;;;;2.00;0.90;;;6.60;99.90;;;;;;5074090;28;20123;-74
2022/09/21 01:33:38;;;;;;;1.70;0.73;;;6.60;99.90;;;;;;5074167;28;20041;-74
2022/09/21 01:36:09;;;;;;;2.35;0.90;;;6.60;99.90;;;;;;5075091;28;20052;-74
2022/09/21 01:38:42;;;;;;;1.92;0.80;;;6.60;99.90;;;;;;5074139;28;20048;-74
2022/09/21 01:41:12;;;;;;;2.28;0.80;;;6.60;99.90;;;;;;5074736;28;20049;-74
2022/09/21 01:43:51;;;;;;;1.20;0.50;;;6.60;99.90;;;;;;5075333;28;20122;-74
2022/09/21 01:46:21;;;;;;;2.28;0.60;;;6.50;99.90;;;;;;5074623;28;20146;-74
2022/09/21 01:48:51;;;;;;;0.77;0.47;;;6.50;99.90;;;;;;5074449;28;20084;-74
2022/09/21 01:51:20;;;;;;;6.68;0.80;;;6.40;99.90;;;;;;5074730;28;20044;-73
2022/09/21 01:54:03;;;;;;;0.93;0.50;;;6.40;99.90;;;;;;5074523;28;20048;-75
2022/09/21 01:56:37;;;;;;;2.88;0.90;;;6.40;99.90;;;;;;5073951;28;20048;-74
2022/09/21 01:59:18;;;;;;;1.20;0.57;;;6.30;99.90;;;;;;5074539;28;20052;-74
2022/09/21 02:01:50;;;;;;;1.42;0.68;;;6.30;99.90;;;;;;5073763;28;20096;-74
2022/09/21 02:04:17;;;;;;;4.10;0.88;;;6.30;99.90;;;;;;5074700;28;20409;-73
2022/09/21 02:06:46;;;;;;;1.65;0.65;;;6.30;99.90;;;;;;5074152;28;20055;-73
2022/09/21 02:09:12;;;;;;;1.50;0.60;;;6.30;99.90;;;;;;5074176;28;20103;-74
2022/09/21 02:11:41;;;;;;;2.03;0.80;;;6.20;99.90;;;;;;5073217;28;20052;-74
2022/09/21 02:14:08;;;;;;;2.00;0.75;;;6.20;99.90;;;;;;5072878;28;20056;-74
2022/09/21 02:16:43;;;;;;;2.17;0.70;;;6.50;99.90;;;;;;5073010;28;20393;-74
2022/09/21 02:19:15;;;;;;;1.48;0.88;;;6.30;99.90;;;;;;5074079;28;20048;-74
2022/09/21 02:21:49;;;;;;;1.55;0.60;;;6.30;99.90;;;;;;5073922;28;20041;-74
2022/09/21 02:24:24;;;;;;;0.93;0.60;;;6.40;99.90;;;;;;5073843;28;20045;-74
2022/09/21 02:27:03;;;;;;;1.08;0.52;;;6.40;99.90;;;;;;5074032;28;20048;-74
2022/09/21 02:29:34;;;;;;;1.10;0.60;;;6.40;99.90;;;;;;5074187;28;20457;-74
2022/09/21 02:32:19;;;;;;;1.00;0.50;;;6.50;99.90;;;;;;5073097;28;20121;-74
2022/09/21 02:34:51;;;;;;;1.40;0.60;;;6.30;99.90;;;;;;5073707;28;20135;-74
2022/09/21 02:37:47;;;;;;;1.48;0.60;;;6.20;99.90;;;;;;5074373;28;20055;-74
2022/09/21 02:40:30;;;;;;;1.13;0.70;;;6.10;99.90;;;;;;5073512;28;20105;-74
2022/09/21 02:43:09;;;;;;;1.05;0.55;;;6.20;99.90;;;;;;5073714;28;20131;-74
2022/09/21 02:45:44;;;;;;;0.90;0.50;;;6.20;99.90;;;;;;5073465;28;20135;-74
2022/09/21 02:48:15;;;;;;;0.98;0.57;;;6.20;99.90;;;;;;5056196;28;20086;-74
2022/09/21 02:50:46;;;;;;;1.73;1.00;;;6.50;99.90;;;;;;5073315;28;20478;-74
2022/09/21 02:53:16;;;;;;;1.77;0.80;;;6.20;99.90;;;;;;5073606;28;20032;-74
2022/09/21 02:55:44;;;;;;;1.95;0.90;;;6.70;99.90;;;;;;5072290;28;20059;-73
2022/09/21 02:58:13;;;;;;;1.23;0.68;;;6.40;99.90;;;;;;5073482;28;20044;-73
2022/09/21 03:00:39;;;;;;;0.93;0.50;;;6.50;99.90;;;;;;5072457;28;20482;-74
2022/09/21 03:03:17;;;;;;;2.58;0.70;;;6.50;99.90;;;;;;5072759;28;20135;-74
2022/09/21 03:05:45;;;;;;;1.58;0.57;;;6.50;99.90;;;;;;5073366;28;20050;-73
2022/09/21 03:08:11;;;;;;;1.25;0.50;;;6.60;99.90;;;;;;5072893;28;20057;-74
2022/09/21 03:10:39;;;;;;;1.42;0.60;;;6.60;99.90;;;;;;5072302;28;20053;-74
2022/09/21 03:13:07;;;;;;;2.53;0.75;;;6.60;99.90;;;;;;5073239;28;20049;-74
2022/09/21 03:15:38;;;;;;;2.47;0.90;;;6.70;99.90;;;;;;5055578;28;20059;-74
2022/09/21 03:18:05;;;;;;;2.25;0.77;;;6.60;99.90;;;;;;5072001;28;20079;-74
2022/09/21 03:20:34;;;;;;;1.85;0.80;;;6.60;99.90;;;;;;5072559;28;20048;-74
2022/09/21 03:23:01;;;;;;;0.90;0.60;;;6.70;99.90;;;;;;5073286;28;20040;-74
2022/09/21 03:25:27;;;;;;;1.75;0.70;;;6.90;99.90;;;;;;5071920;28;20083;-73
2022/09/21 03:27:54;;;;;;;2.20;0.75;;;6.60;99.90;;;;;;5072648;28;20066;-74
2022/09/21 03:30:24;;;;;;;1.85;0.80;;;6.60;99.90;;;;;;5073113;28;20059;-74
2022/09/21 03:32:51;;;;;;;1.83;0.68;;;6.50;99.90;;;;;;5073029;28;20078;-73
2022/09/21 03:35:22;;;;;;;1.15;0.60;;;6.50;99.90;;;;;;5072078;28;20059;-74
2022/09/21 03:37:49;;;;;;;1.02;0.70;;;6.50;99.90;;;;;;5073073;28;20080;-73
2022/09/21 03:40:16;;;;;;;1.88;0.60;;;6.50;99.90;;;;;;5073079;28;20044;-74
2022/09/21 03:42:42;;;;;;;12.90;1.60;;;6.50;99.90;;;;;;5071972;28;20076;-75
2022/09/21 03:45:10;;;;;;;8.02;1.35;;;6.40;99.90;;;;;;5074271;28;20044;-74
2022/09/21 03:47:37;;;;;;;4.32;0.88;;;6.40;99.90;;;;;;5075563;28;20135;-74
2022/09/21 03:50:04;;;;;;;3.28;0.80;;;6.30;99.90;;;;;;5073200;28;20048;-75
2022/09/21 03:52:30;;;;;;;10.02;1.17;;;6.20;99.90;;;;;;5072854;28;20041;-74
2022/09/21 03:54:57;;;;;;;9.80;1.40;;;6.10;99.90;;;;;;5073486;28;20366;-74
2022/09/21 03:57:23;;;;;;;5.38;1.20;;;6.00;99.90;;;;;;5073373;28;20393;-74
2022/09/21 03:59:48;;;;;;;14.60;1.75;;;5.90;99.90;;;;;;5073264;28;20103;-74
2022/09/21 04:02:15;;;;;;;3.92;1.27;;;6.20;99.90;;;;;;5072243;28;20049;-74
2022/09/21 04:04:41;;;;;;;4.57;1.20;;;6.00;99.90;;;;;;5071620;28;20139;-74
2022/09/21 04:07:07;;;;;;;1.65;0.75;;;6.10;99.90;;;;;;5072570;28;20084;-74
2022/09/21 04:09:32;;;;;;;2.25;0.80;;;6.00;99.90;;;;;;5072115;28;20048;-74
2022/09/21 04:11:58;;;;;;;2.45;0.90;;;6.40;99.90;;;;;;5071988;28;20387;-74
2022/09/21 04:14:24;;;;;;;1.60;0.80;;;6.10;99.90;;;;;;5071767;28;20131;-74
2022/09/21 04:16:52;;;;;;;1.45;0.82;;;6.10;99.90;;;;;;5073241;28;20098;-74
2022/09/21 04:19:18;;;;;;;8.73;1.17;;;6.10;99.90;;;;;;5056145;28;20127;-74
2022/09/21 04:21:44;;;;;;;5.25;1.02;;;6.70;99.90;;;;;;5072248;28;20509;-74
2022/09/21 04:24:10;;;;;;;9.25;1.27;;;6.00;99.90;;;;;;5072718;28;20052;-74
2022/09/21 04:26:36;;;;;;;27.27;3.40;;;5.90;99.90;;;;;;5071300;28;20055;-75
2022/09/21 04:29:02;;;;;;;8.43;1.15;;;5.80;99.90;;;;;;5054722;28;20102;-74
2022/09/21 04:31:29;;;;;;;0.90;0.40;;;5.70;99.90;;;;;;5071544;28;20052;-74
2022/09/21 04:33:57;;;;;;;1.35;0.60;;;5.70;99.90;;;;;;5071377;28;20055;-74
2022/09/21 04:36:26;;;;;;;2.10;0.77;;;5.80;99.90;;;;;;5071147;28;20045;-74
2022/09/21 04:38:52;;;;;;;1.90;0.85;;;5.90;99.90;;;;;;5071473;28;20056;-74
2022/09/21 04:41:17;;;;;;;2.17;0.80;;;5.70;99.90;;;;;;5074293;28;20044;-74
2022/09/21 04:43:45;;;;;;;2.00;0.95;;;5.70;99.90;;;;;;5075980;28;20044;-73
2022/09/21 04:46:13;;;;;;;1.40;0.82;;;6.00;99.90;;;;;;5075176;28;20090;-74
2022/09/21 04:48:39;;;;;;;1.80;0.65;;;5.90;99.90;;;;;;5075836;28;20105;-75
2022/09/21 04:51:06;;;;;;;1.58;0.70;;;5.90;99.90;;;;;;5075818;28;20470;-75
2022/09/21 04:53:33;;;;;;;2.05;0.65;;;6.40;99.90;;;;;;5076474;28;20049;-74
2022/09/21 04:55:59;;;;;;;2.08;0.60;;;6.30;99.90;;;;;;5075832;28;20098;-74
2022/09/21 04:58:25;;;;;;;1.25;0.60;;;5.90;99.90;;;;;;5074810;28;20052;-74
2022/09/21 05:00:54;;;;;;;2.03;0.90;;;6.20;99.90;;;;;;5075447;28;20040;-75
2022/09/21 05:03:21;;;;;;;1.02;0.50;;;5.90;99.90;;;;;;5075660;28;20044;-74
2022/09/21 05:05:48;;;;;;;2.88;0.93;;;5.80;99.90;;;;;;5075649;28;20041;-74
2022/09/21 05:08:17;;;;;;;3.60;1.38;;;5.80;99.90;;;;;;5075522;28;20056;-74
2022/09/21 05:10:45;;;;;;;3.17;1.00;;;5.90;99.90;;;;;;5074714;28;20562;-74
2022/09/21 05:13:11;;;;;;;1.80;0.60;;;5.90;99.90;;;;;;5073989;28;20044;-74
2022/09/21 05:15:38;;;;;;;1.80;0.90;;;5.80;99.90;;;;;;5040656;28;20450;-73
2022/09/21 05:18:04;;;;;;;1.23;0.65;;;6.00;99.90;;;;;;5075243;28;20397;-74
2022/09/21 05:20:29;;;;;;;1.08;0.52;;;5.80;99.90;;;;;;5074497;28;20136;-74
2022/09/21 05:23:00;;;;;;;1.50;0.50;;;5.80;99.90;;;;;;5058366;28;20048;-74
2022/09/21 05:25:26;;;;;;;0.82;0.55;;;5.70;99.90;;;;;;5075995;28;20040;-74
2022/09/21 05:27:51;;;;;;;1.25;0.50;;;5.60;99.90;;;;;;5074760;28;20056;-74
2022/09/21 05:30:20;;;;;;;1.35;0.50;;;6.40;99.90;;;;;;5074367;28;20040;-74
2022/09/21 05:33:02;;;;;;;2.78;0.90;;;5.60;99.90;;;;;;5057203;28;20048;-74
2022/09/21 05:35:35;;;;;;;1.95;0.85;;;5.70;99.90;;;;;;5074420;28;20052;-74
2022/09/21 05:38:11;;;;;;;1.45;0.70;;;5.70;99.90;;;;;;5074331;28;20051;-74
2022/09/21 05:40:37;;;;;;;1.15;0.50;;;5.60;99.90;;;;;;5073748;28;20473;-74
2022/09/21 05:43:03;;;;;;;2.67;0.70;;;5.70;99.90;;;;;;5074811;28;20101;-74
2022/09/21 05:45:29;;;;;;;0.82;0.50;;;5.70;99.90;;;;;;5074077;28;20090;-74
2022/09/21 05:48:01;;;;;;;4.03;0.85;;;5.60;99.90;;;;;;5074711;28;20041;-74
2022/09/21 05:50:39;;;;;;;2.00;0.85;;;5.70;99.90;;;;;;5074267;28;20055;-73
2022/09/21 05:53:31;;;;;;;2.20;0.80;;;5.70;99.90;;;;;;5073347;28;20051;-73
2022/09/21 05:56:02;;;;;;;1.90;1.00;;;5.70;99.90;;;;;;5074012;28;20126;-74
2022/09/21 05:58:53;;;;;;;2.03;1.00;;;5.70;99.90;;;;;;5057875;28;20044;-74
2022/09/21 06:01:32;;;;;;;3.53;1.30;;;5.80;99.90;;;;;;5075303;28;20056;-74
2022/09/21 06:04:01;;;;;;;2.72;1.00;;;5.80;99.90;;;;;;5074512;28;20059;-74
2022/09/21 06:06:30;;;;;;;2.30;1.08;;;6.20;99.90;;;;;;5073285;28;20082;-74
2022/09/21 06:08:55;;;;;;;2.35;0.80;;;5.90;99.90;;;;;;5074558;28;20144;-75
2022/09/21 06:11:21;;;;;;;2.60;1.05;;;6.30;99.90;;;;;;5074181;28;20131;-74
2022/09/21 06:13:47;;;;;;;1.90;0.80;;;6.00;99.90;;;;;;5074171;28;20044;-74
2022/09/21 06:16:12;;;;;;;4.68;1.05;;;6.20;99.90;;;;;;5073833;28;20051;-74
2022/09/21 06:18:39;;;;;;;3.63;1.10;;;6.10;99.90;;;;;;5073349;28;20097;-74
2022/09/21 06:21:06;;;;;;;1.70;0.90;;;6.20;99.90;;;;;;5073248;28;20059;-74
2022/09/21 06:23:32;;;;;;;2.60;1.05;;;6.50;99.90;;;;;;5073915;28;20063;-74
2022/09/21 06:25:58;;;;;;;1.88;0.93;;;6.40;99.90;;;;;;5056578;28;20047;-67
2022/09/21 06:28:24;;;;;;;3.15;1.00;;;6.60;99.90;;;;;;5073292;28;20052;-68
2022/09/21 06:30:51;;;;;;;4.03;1.58;;;6.60;99.90;;;;;;5072479;28;20134;-67
2022/09/21 06:33:20;;;;;;;2.92;1.27;;;6.70;99.90;;;;;;5073848;28;20128;-67
2022/09/21 06:35:58;;;;;;;3.13;1.10;;;6.90;99.90;;;;;;5073880;28;20044;-68
2022/09/21 06:38:26;;;;;;;3.47;1.17;;;7.00;99.90;;;;;;5072776;28;20067;-67
2022/09/21 06:40:52;;;;;;;2.45;1.08;;;7.10;99.90;;;;;;5073675;28;20056;-67
2022/09/21 06:43:18;;;;;;;2.35;1.00;;;7.20;99.90;;;;;;5074196;28;20080;-68
2022/09/21 06:45:53;;;;;;;4.18;1.05;;;7.40;99.90;;;;;;5074458;28;20069;-68
2022/09/21 06:48:18;;;;;;;2.50;1.15;;;7.50;99.90;;;;;;5072602;28;20048;-68
2022/09/21 06:50:44;;;;;;;4.82;1.20;;;7.70;99.90;;;;;;5073500;28;20106;-68
2022/09/21 06:53:10;;;;;;;4.00;1.48;;;7.80;99.90;;;;;;5072371;28;20094;-69
2022/09/21 06:55:35;;;;;;;3.35;1.23;;;8.00;99.90;;;;;;5072458;28;20110;-68
2022/09/21 06:58:02;;;;;;;5.32;1.40;;;8.10;99.90;;;;;;5073446;28;20080;-68
2022/09/21 07:00:29;;;;;;;4.70;1.35;;;8.60;99.90;;;;;;5073948;28;20126;-68
2022/09/21 07:02:54;;;;;;;3.03;1.10;;;8.30;99.90;;;;;;5072968;28;20508;-68
2022/09/21 07:05:20;;;;;;;5.25;1.50;;;8.50;99.90;;;;;;5072389;28;20078;-68
2022/09/21 07:07:46;;;;;;;3.40;1.10;;;8.60;99.90;;;;;;5072596;28;20067;-69
2022/09/21 07:10:12;;;;;;;4.20;1.20;;;8.70;99.90;;;;;;5072097;28;20505;-68
2022/09/21 07:12:38;;;;;;;3.25;1.05;;;8.90;99.90;;;;;;5073044;28;20043;-69
2022/09/21 07:15:05;;;;;;;2.42;1.10;;;9.10;99.90;;;;;;5073287;28;20052;-69
2022/09/21 07:17:36;;;;;;;2.83;1.13;;;9.20;99.90;;;;;;5073134;28;20430;-69
2022/09/21 07:20:03;;;;;;;3.92;0.95;;;9.40;99.90;;;;;;5072005;28;20055;-70
2022/09/21 07:22:29;;;;;;;2.20;0.90;;;9.60;99.90;;;;;;5073984;28;20380;-69
2022/09/21 07:24:55;;;;;;;4.25;1.67;;;9.70;99.90;;;;;;5073210;28;20103;-69
2022/09/21 07:27:21;;;;;;;3.15;1.23;;;9.80;99.90;;;;;;5073126;28;20045;-69
2022/09/21 07:29:47;;;;;;;3.05;1.13;;;10.00;99.90;;;;;;5073062;28;20067;-69
2022/09/21 07:32:12;;;;;;;4.35;1.10;;;10.20;99.90;;;;;;5073439;28;20045;-70
2022/09/21 07:34:38;;;;;;;2.03;1.42;;;10.20;99.90;;;;;;5072019;28;20041;-70
2022/09/21 07:37:04;;;;;;;2.00;1.02;;;10.40;99.90;;;;;;5072161;28;20053;-70
2022/09/21 07:39:30;;;;;;;3.75;1.70;;;10.50;99.90;;;;;;5072974;28;20049;-68
2022/09/21 07:41:58;;;;;;;4.65;0.90;;;10.70;99.90;;;;;;5072939;28;20037;-67
2022/09/21 07:44:25;;;;;;;5.35;1.45;;;10.80;99.90;;;;;;5072983;28;20056;-67
2022/09/21 07:46:51;;;;;;;3.72;0.88;;;10.90;99.90;;;;;;5073457;28;20098;-67
2022/09/21 07:49:16;;;;;;;4.25;1.00;;;11.00;99.90;;;;;;5073308;28;20045;-67
2022/09/21 07:51:42;;;;;;;2.88;0.88;;;11.10;99.90;;;;;;5074214;28;20040;-67
2022/09/21 07:54:12;;;;;;;2.40;0.77;;;11.10;99.90;;;;;;5073687;28;20124;-67
2022/09/21 07:56:38;;;;;;;3.35;1.25;;;11.20;99.90;;;;;;5071856;28;20048;-67
2022/09/21 07:59:07;;;;;;;3.70;0.98;;;11.30;99.90;;;;;;5072844;28;20047;-68
2022/09/21 08:01:35;;;;;;;2.88;1.10;;;11.40;99.90;;;;;;5072943;28;20059;-68
2022/09/21 08:04:01;;;;;;;2.47;0.95;;;11.50;99.90;;;;;;5072689;28;20087;-67
2022/09/21 08:06:29;;;;;;;3.17;1.00;;;11.60;99.90;;;;;;5072518;28;20040;-67
2022/09/21 08:08:55;;;;;;;4.32;1.38;;;11.70;99.90;;;;;;5071520;28;20124;-67
2022/09/21 08:11:22;;;;;;;5.03;1.00;;;11.80;99.90;;;;;;5072677;28;20553;-67
2022/09/21 08:13:52;;;;;;;4.10;1.20;;;12.00;99.90;;;;;;5072844;28;20142;-67
2022/09/21 08:16:18;;;;;;;2.65;0.88;;;12.10;99.90;;;;;;5077009;28;20121;-68
2022/09/21 08:18:43;;;;;;;3.33;1.00;;;12.30;99.90;;;;;;5076436;28;20135;-67
2022/09/21 08:21:10;;;;;;;4.22;0.93;;;12.40;99.90;;;;;;5076346;28;20045;-68
2022/09/21 08:23:39;;;;;;;4.70;1.00;;;12.50;99.90;;;;;;5076419;28;20040;-67
2022/09/21 08:26:06;;;;;;;2.97;0.77;;;12.50;99.90;;;;;;5076840;28;20087;-67
2022/09/21 08:28:34;;;;;;;2.83;0.75;;;12.60;99.90;;;;;;5075912;28;20057;-67
2022/09/21 08:31:01;;;;;;;2.97;0.70;;;12.70;99.90;;;;;;5075915;28;20146;-67
2022/09/21 08:33:27;;;;;;;3.55;0.93;;;12.80;99.90;;;;;;5076089;28;20070;-67
2022/09/21 08:35:55;;;;;;;5.40;1.05;;;12.90;99.90;;;;;;5075080;28;20072;-67
2022/09/21 08:38:23;;;;;;;4.22;0.77;;;13.00;99.90;;;;;;5076161;28;20083;-68
2022/09/21 08:40:51;;;;;;;2.28;0.85;;;13.20;99.90;;;;;;5076037;28;20068;-68
2022/09/21 08:43:43;;;;;;;2.63;0.80;;;13.20;99.90;;;;;;5075941;28;20040;-67
2022/09/21 08:46:14;;;;;;;4.95;1.17;;;13.30;99.90;;;;;;5076051;28;20127;-67
2022/09/21 08:48:45;;;;;;;2.70;0.77;;;13.40;99.90;;;;;;5076649;28;20049;-67
2022/09/21 08:51:15;;;;;;;3.17;0.70;;;13.40;99.90;;;;;;5075611;28;20458;-67
2022/09/21 08:53:47;;;;;;;4.50;0.93;;;13.50;99.90;;;;;;5076581;28;20040;-67
2022/09/21 08:56:15;;;;;;;2.22;0.80;;;13.60;99.90;;;;;;5075177;28;20468;-67
2022/09/21 08:58:42;;;;;;;3.80;1.30;;;13.70;99.90;;;;;;5076165;28;20102;-67
2022/09/21 09:01:20;;;;;;;3.65;0.60;;;13.80;99.90;;;;;;5075704;28;20127;-67
2022/09/21 09:04:15;;;;;;;2.65;0.90;;;13.80;99.90;;;;;;5075662;28;20037;-68
2022/09/21 09:06:54;;;;;;;3.33;0.90;;;13.90;99.90;;;;;;5076453;28;20067;-66
2022/09/21 09:09:20;;;;;;;2.55;0.60;;;14.00;99.90;;;;;;5074424;28;20048;-67
2022/09/21 09:12:01;;;;;;;4.20;0.80;;;14.10;99.90;;;;;;5074441;28;20052;-67
2022/09/21 09:14:54;;;;;;;3.50;0.90;;;14.10;99.90;;;;;;5074475;28;20052;-67
2022/09/21 09:17:29;;;;;;;2.33;0.68;;;14.20;99.90;;;;;;5075695;28;20056;-67
2022/09/21 09:20:14;;;;;;;3.63;0.80;;;14.40;99.90;;;;;;5075688;28;20393;-67
2022/09/21 09:22:47;;;;;;;5.05;1.02;;;14.40;99.90;;;;;;5075189;28;20377;-68
2022/09/21 09:25:18;;;;;;;1.55;0.63;;;14.40;99.90;;;;;;5074753;28;20139;-68
2022/09/21 09:27:49;;;;;;;3.53;0.70;;;14.30;99.90;;;;;;5075939;28;20439;-68
2022/09/21 09:30:19;;;;;;;2.70;0.70;;;14.20;99.90;;;;;;5075892;28;20094;-67
2022/09/21 09:32:48;;;;;;;2.75;0.82;;;14.00;99.90;;;;;;5075045;28;20037;-69
2022/09/21 09:35:35;;;;;;;2.60;0.90;;;14.00;99.90;;;;;;5073722;28;20040;-67
2022/09/21 09:38:13;;;;;;;3.38;0.88;;;13.90;99.90;;;;;;5075079;28;20402;-67
2022/09/21 09:41:07;;;;;;;2.55;0.70;;;13.80;99.90;;;;;;5074935;28;20048;-67
2022/09/21 09:43:51;;;;;;;3.42;0.95;;;13.70;99.90;;;;;;5072382;28;20145;-67
2022/09/21 09:46:20;;;;;;;2.47;0.70;;;13.60;99.90;;;;;;5074192;28;20048;-68
2022/09/21 09:49:10;;;;;;;2.25;0.63;;;13.50;99.90;;;;;;5074682;28;20078;-68
2022/09/21 09:51:38;;;;;;;4.85;0.73;;;13.70;99.90;;;;;;5075284;28;20071;-67
2022/09/21 09:54:05;;;;;;;2.35;0.70;;;14.00;99.90;;;;;;5075160;28;20178;-70
2022/09/21 09:56:31;;;;;;;2.00;0.60;;;14.20;99.90;;;;;;5074551;28;20056;-68
2022/09/21 09:59:05;;;;;;;3.25;0.82;;;14.40;99.90;;;;;;5074509;28;20056;-67
2022/09/21 10:01:45;;;;;;;2.63;0.63;;;14.60;99.90;;;;;;5073567;28;20041;-67
2022/09/21 10:04:13;;;;;;;3.38;0.80;;;14.80;99.90;;;;;;5074318;28;20052;-68
2022/09/21 10:06:40;;;;;;;1.92;0.75;;;15.10;99.90;;;;;;5074030;28;20500;-68
2022/09/21 10:09:33;;;;;;;3.90;0.82;;;15.20;99.90;;;;;;5075288;28;20056;-68
2022/09/21 10:12:23;;;;;;;3.90;0.85;;;15.20;99.90;;;;;;5071544;28;20106;-67
2022/09/21 10:14:51;;;;;;;2.95;0.70;;;15.30;99.90;;;;;;5075044;28;20049;-68
2022/09/21 10:17:18;;;;;;;2.72;0.60;;;15.20;99.90;;;;;;5072825;28;20080;-68
2022/09/21 10:19:44;;;;;;;1.83;0.50;;;15.10;99.90;;;;;;5074196;28;20087;-68
2022/09/21 10:22:18;;;;;;;3.35;1.08;;;15.00;99.90;;;;;;5056170;28;20528;-68
2022/09/21 10:24:53;;;;;;;3.53;0.90;;;15.00;99.90;;;;;;5074110;28;20058;-69
2022/09/21 10:27:27;;;;;;;3.80;0.90;;;14.90;99.90;;;;;;5073954;28;20086;-69
2022/09/21 10:29:53;;;;;;;2.95;0.60;;;14.80;99.90;;;;;;5073856;28;20060;-71
2022/09/21 10:32:24;;;;;;;2.88;0.75;;;14.60;99.90;;;;;;5073486;28;20094;-71
2022/09/21 10:35:11;;;;;;;3.10;0.80;;;14.40;99.90;;;;;;5074638;28;20066;-69
2022/09/21 10:37:39;;;;;;;2.20;0.70;;;14.20;99.90;;;;;;5072353;28;20098;-71
2022/09/21 10:40:20;;;;;;;2.97;0.85;;;14.10;99.90;;;;;;5073536;28;20053;-68
2022/09/21 10:42:49;;;;;;;1.60;0.60;;;14.20;99.90;;;;;;5073233;28;20056;-68
2022/09/21 10:45:19;;;;;;;2.60;0.60;;;14.20;99.90;;;;;;5074131;28;20040;-68
2022/09/21 10:48:07;;;;;;;2.15;0.75;;;14.30;99.90;;;;;;5073527;28;20101;-67
2022/09/21 10:50:41;;;;;;;1.67;0.65;;;14.30;99.90;;;;;;5074104;28;20088;-69
2022/09/21 10:53:24;;;;;;;1.48;0.60;;;14.40;99.90;;;;;;5073455;28;20032;-68
2022/09/21 10:55:57;;;;;;;2.03;0.60;;;14.30;99.90;;;;;;5073541;28;20052;-70
2022/09/21 10:58:23;;;;;;;2.85;0.75;;;14.20;99.90;;;;;;5073987;28;20381;-71
2022/09/21 11:00:51;;;;;;;1.27;0.55;;;14.20;99.90;;;;;;5073882;28;20040;-70
2022/09/21 11:03:29;;;;;;;1.98;0.60;;;14.10;99.90;;;;;;5072030;28;20052;-70
2022/09/21 11:06:03;;;;;;;1.60;0.60;;;14.10;99.90;;;;;;5073330;28;20477;-70
2022/09/21 11:08:38;;;;;;;2.25;0.57;;;14.10;99.90;;;;;;5073671;28;20103;-70
2022/09/21 11:11:28;;;;;;;1.40;0.57;;;14.10;99.90;;;;;;5072106;28;20109;-71
2022/09/21 11:14:29;;;;;;;1.98;0.70;;;14.10;99.90;;;;;;5072345;28;20401;-69
2022/09/21 11:17:06;;;;;;;2.58;0.65;;;14.20;99.90;;;;;;5063531;28;20136;-69
2022/09/21 11:19:53;;;;;;;3.13;0.82;;;14.10;99.90;;;;;;5073073;28;20040;-68
2022/09/21 11:22:23;;;;;;;;;;;14.20;99.90;;;;;;5074032;28;20053;-68
2022/09/21 11:24:57;;;;;;;1.63;0.55;;;14.20;99.90;;;;;;5073570;28;19989;-68
2022/09/21 11:27:44;;;;;;;2.42;0.60;;;14.20;99.90;;;;;;5073787;28;20082;-68
2022/09/21 11:30:15;;;;;;;3.90;0.88;;;14.20;99.90;;;;;;5073288;28;20371;-68
2022/09/21 11:32:46;;;;;;;1.73;0.70;;;14.20;99.90;;;;;;5072965;28;20073;-68
2022/09/21 11:36:01;;;;;;;2.90;0.70;;;14.20;99.90;;;;;;5073064;28;20044;-71
2022/09/21 11:38:26;;;;;;;2.90;0.80;;;14.20;99.90;;;;;;4998247;28;20050;-68
2022/09/21 11:40:53;;;;;;;2.47;0.90;;;14.20;99.90;;;;;;5031126;28;20131;-70
2022/09/21 11:43:37;;;;;;;3.80;0.68;;;14.20;99.90;;;;;;5053379;28;20106;-70
2022/09/21 11:47:04;;;;;;;3.90;0.68;;;14.20;99.90;;;;;;5072820;28;20059;-70
2022/09/21 11:50:07;;;;;;;2.85;0.77;;;14.20;99.90;;;;;;5035552;28;20087;-70
2022/09/21 11:52:58;;;;;;;1.90;0.57;;;14.30;99.90;;;;;;5076622;28;20539;-69
2022/09/21 11:55:58;;;;;;;3.30;0.68;;;14.20;99.90;;;;;;5076216;28;20055;-68
2022/09/21 11:58:29;;;;;;;2.53;0.85;;;14.20;99.90;;;;;;5076488;28;20386;-68
2022/09/21 12:01:13;;;;;;;3.58;0.73;;;14.20;99.90;;;;;;5077468;28;20060;-71
2022/09/21 12:03:58;;;;;;;3.35;0.77;;;14.10;99.90;;;;;;5076671;28;20398;-68
2022/09/21 12:06:56;;;;;;;2.45;0.60;;;14.10;99.90;;;;;;5076621;28;20055;-71
2022/09/21 12:09:25;;;;;;;2.30;0.60;;;14.10;99.90;;;;;;5077312;28;20056;-72
2022/09/21 12:11:55;;;;;;;3.35;0.82;;;14.00;99.90;;;;;;5078002;28;20048;-71
2022/09/21 12:14:59;;;;;;;1.83;0.60;;;14.00;99.90;;;;;;5077194;28;20048;-70
2022/09/21 12:17:42;;;;;;;1.17;0.70;;;13.90;99.90;;;;;;5076408;28;20122;-71
2022/09/21 12:20:20;;;;;;;3.08;0.80;;;13.90;99.90;;;;;;5076395;28;20080;-69
2022/09/21 12:22:50;;;;;;;0.80;0.47;;;13.80;99.90;;;;;;5076315;28;20051;-71
2022/09/21 12:25:22;;;;;;;3.88;0.70;;;13.80;99.90;;;;;;5076270;28;20048;-70
2022/09/21 12:27:53;;;;;;;3.33;0.60;;;13.80;99.90;;;;;;5077042;28;20045;-69
2022/09/21 12:30:21;;;;;;;3.53;1.08;;;13.80;99.90;;;;;;5076162;28;20075;-69
2022/09/21 12:32:54;;;;;;;2.63;0.73;;;13.80;99.90;;;;;;5076068;28;20048;-70
2022/09/21 12:35:32;;;;;;;3.40;0.85;;;13.80;99.90;;;;;;5077014;28;20071;-71
2022/09/21 12:38:22;;;;;;;2.08;0.60;;;13.80;99.90;;;;;;5074866;28;20051;-72
2022/09/21 12:41:03;;;;;;;1.52;0.47;;;13.80;99.90;;;;;;5076749;28;20044;-68
2022/09/21 12:43:40;;;;;;;3.10;0.70;;;13.80;99.90;;;;;;5075518;28;20376;-67
2022/09/21 12:46:21;;;;;;;2.40;0.60;;;13.80;99.90;;;;;;5076670;28;20135;-67
2022/09/21 12:48:46;;;;;;;1.17;0.60;;;13.80;99.90;;;;;;5075606;28;20128;-67
2022/09/21 12:51:28;;;;;;;3.20;0.80;;;13.80;99.90;;;;;;5075896;28;20056;-67
2022/09/21 12:53:59;;;;;;;2.47;0.80;;;13.80;99.90;;;;;;5076175;28;20037;-67
2022/09/21 12:56:48;;;;;;;1.52;0.50;;;13.80;99.90;;;;;;5076366;28;20081;-70
2022/09/21 12:59:18;;;;;;;1.27;0.63;;;13.80;99.90;;;;;;5075819;28;20074;-67
2022/09/21 13:01:46;;;;;;;1.30;0.50;;;13.80;99.90;;;;;;5074293;28;20085;-68
2022/09/21 13:04:21;;;;;;;2.83;0.80;;;13.80;99.90;;;;;;5074568;28;20105;-68
2022/09/21 13:06:46;;;;;;;3.38;0.80;;;13.90;99.90;;;;;;5075779;28;20086;-68
2022/09/21 13:09:16;;;;;;;2.90;0.70;;;14.00;99.90;;;;;;5076075;28;20434;-72
2022/09/21 13:11:54;;;;;;;2.95;0.60;;;14.20;99.90;;;;;;5075276;28;20055;-67
2022/09/21 13:14:23;;;;;;;2.28;0.60;;;14.30;99.90;;;;;;5075761;28;20102;-67
2022/09/21 13:16:59;;;;;;;2.42;0.60;;;14.40;99.90;;;;;;5075333;28;20052;-67